Hauptseite
METAR-TAF:

METAR-TAF

Flughäfen :

Guilin, China

Flughafen Guilin-Liangjiang

Breite: 25-20N, Länge: 110-18E, Höhe: 166 m

Beobachtung

Neuester Wetterbericht von vor 30 Minuten, um 20:00 UTC
Wind 2 kt aus unterschiedlichen Richtungen
Temperatur 1°C
Luftfeuchtigkeit 86%
Luftdruck 1033 hPa
Sichtweite: 6000 m

METAR: ZGKL 182000Z VRB01MPS 6000 NSC 01/M01 Q1033 NOSIG

Zeit: 04:30 (20:30 UTC)

Prognose

Neuester Wetterbericht von vor 5 Stunden und 11 Minuten, um 15:19 UTC
Gültige Prognose vom 18 um 18 UTC bis 19 um 18 UTC
Wind 6 kt aus Nordost
Sichtweite: 6000 m

TAF: ZGKL 181519Z 1818/1918 05003MPS 6000 NSC TX15/1907Z TN00/1822Z

Wetterbeobachtungen und Prognosen von mehr als 4000 Flughäfen (METAR und TAF Bericht).

Die verfügbaren Stationen werden durch gelbe und rote Markierungen auf der Karte dargestellt.

Führen Sie die Maus auf sie, um den Namen der Station zu sehen.

Darauf klicken, um die Beobachtung von Wetterbeobachtungen und Prognosen zu sehen.

Um die Karte zu ändern : klicken Sie auf den grünen Tasten mit einem schwarzen Kreuz Zum Vergrößern, auf den grünen Button mit einem Gedankenstrich zu verkleinern, oder auf die grünen Pfeile für benachbarte Karten.


METAR-TAF: